createdAt,value
2022-10-25T00:03:27.307Z,98927.59
2022-10-25T00:08:31.610Z,98938.13
2022-10-25T00:13:34.781Z,98933.63
2022-10-25T00:18:37.694Z,98942.94
2022-10-25T00:23:41.975Z,98934.53
2022-10-25T00:28:45.163Z,98948.63
2022-10-25T00:33:48.072Z,98952.94
2022-10-25T00:38:52.792Z,98940.06
2022-10-25T00:43:57.467Z,98946.50
2022-10-25T00:49:04.241Z,98948.06
2022-10-25T00:54:12.707Z,98951.44
2022-10-25T00:59:19.919Z,98948.41
2022-10-25T01:04:26.917Z,98942.69
2022-10-25T01:09:33.256Z,98941.19
2022-10-25T01:14:39.407Z,98933.72
2022-10-25T01:20:05.269Z,98930.22
2022-10-25T01:25:33.412Z,98919.63
2022-10-25T01:31:10.032Z,98921.22
2022-10-25T01:36:17.645Z,98913.03
2022-10-25T01:41:26.529Z,98926.31
2022-10-25T01:46:41.010Z,98922.19
2022-10-25T01:51:43.968Z,98933.94
2022-10-25T01:56:55.404Z,98923.44
2022-10-25T02:02:08.530Z,98936.47
2022-10-25T02:07:16.202Z,98933.19
2022-10-25T02:12:26.364Z,98933.94
2022-10-25T02:17:31.892Z,98936.25
2022-10-25T02:22:35.922Z,98932.66
2022-10-25T02:27:40.932Z,98932.81
2022-10-25T02:32:45.269Z,98939.06
2022-10-25T02:37:48.525Z,98937.59
2022-10-25T02:42:51.655Z,98923.31
2022-10-25T02:47:55.900Z,98934.88
2022-10-25T02:52:58.798Z,98930.09
2022-10-25T02:58:01.710Z,98932.91
2022-10-25T03:03:06.289Z,98933.22
2022-10-25T03:08:09.221Z,98939.28
2022-10-25T03:13:12.124Z,98940.66
2022-10-25T03:18:16.840Z,98944.03
2022-10-25T03:23:19.957Z,98944.41
2022-10-25T03:28:23.070Z,98946.84
2022-10-25T03:33:28.258Z,98955.22
2022-10-25T03:38:31.175Z,98953.59
2022-10-25T03:43:34.105Z,98963.50
2022-10-25T03:48:38.363Z,98960.81
2022-10-25T03:53:41.255Z,98981.38
2022-10-25T03:58:44.137Z,98977.28
2022-10-25T04:03:48.375Z,98983.41
2022-10-25T04:08:51.294Z,98981.69
2022-10-25T04:13:54.232Z,98991.34
2022-10-25T04:18:59.218Z,98990.19
2022-10-25T04:24:04.403Z,99001.91
2022-10-25T04:29:08.426Z,99005.41
2022-10-25T04:34:12.889Z,99004.03
2022-10-25T04:39:16.211Z,98988.53
2022-10-25T04:44:19.119Z,98992.72
2022-10-25T04:49:23.419Z,98992.22
2022-10-25T04:54:26.344Z,98994.63
2022-10-25T04:59:29.311Z,98990.94
2022-10-25T05:04:33.620Z,98994.28
2022-10-25T05:09:36.533Z,98998.66
2022-10-25T05:14:39.501Z,99007.72
2022-10-25T05:19:43.767Z,99006.78
2022-10-25T05:24:46.680Z,99005.88
2022-10-25T05:29:49.582Z,99021.25
2022-10-25T05:34:53.840Z,99022.59
2022-10-25T05:39:56.783Z,99028.66
2022-10-25T05:44:59.680Z,99040.81
2022-10-25T05:50:04.129Z,99037.84
2022-10-25T05:55:07.568Z,99035.31
2022-10-25T06:00:11.338Z,99058.31
2022-10-25T06:05:15.888Z,99055.25
2022-10-25T06:10:18.934Z,99063.47
2022-10-25T06:15:21.837Z,99068.66
2022-10-25T06:20:26.420Z,99074.56
2022-10-25T06:25:29.461Z,99086.59
2022-10-25T06:30:33.232Z,99091.16
2022-10-25T06:35:37.511Z,99102.09
2022-10-25T06:40:40.406Z,99085.88
2022-10-25T06:45:43.670Z,99095.72
2022-10-25T06:50:49.981Z,99097.50
2022-10-25T06:55:55.079Z,99106.06
2022-10-25T07:01:01.704Z,99111.19
2022-10-25T07:06:08.047Z,99111.59
2022-10-25T07:11:15.559Z,99105.56
2022-10-25T07:16:20.656Z,99097.97
2022-10-25T07:21:24.988Z,99115.13
2022-10-25T07:26:30.858Z,99116.91
2022-10-25T07:31:36.726Z,99106.38
2022-10-25T07:36:41.220Z,99110.63
2022-10-25T07:41:44.139Z,99120.00
2022-10-25T07:46:47.424Z,99123.38
2022-10-25T07:51:51.675Z,99121.97
2022-10-25T07:56:54.563Z,99118.59
2022-10-25T08:01:57.456Z,99114.69
2022-10-25T08:07:02.376Z,99128.72
2022-10-25T08:12:05.632Z,99124.00
2022-10-25T08:17:08.703Z,99130.38
2022-10-25T08:22:12.967Z,99132.25
2022-10-25T08:27:15.874Z,99144.25
2022-10-25T08:32:18.825Z,99157.75
2022-10-25T08:37:23.248Z,99146.31
2022-10-25T08:42:33.107Z,99148.63
2022-10-25T08:47:39.789Z,99156.28
2022-10-25T08:52:48.524Z,99148.56
2022-10-25T08:57:53.506Z,99144.47
2022-10-25T09:02:58.574Z,99146.47
2022-10-25T09:08:16.477Z,99147.81
2022-10-25T09:13:31.228Z,99148.34
2022-10-25T09:18:42.475Z,99147.53
2022-10-25T09:23:57.888Z,99151.88
2022-10-25T09:29:05.539Z,99164.94
2022-10-25T09:34:11.536Z,99173.06
2022-10-25T09:39:22.391Z,99178.38
2022-10-25T09:44:36.183Z,99181.38
2022-10-25T09:49:44.837Z,99189.88
2022-10-25T09:54:54.610Z,99189.72
2022-10-25T09:59:57.841Z,99186.59
2022-10-25T10:05:00.775Z,99195.13
2022-10-25T10:10:09.608Z,99201.53
2022-10-25T10:15:20.044Z,99191.59
2022-10-25T10:20:23.059Z,99195.25
2022-10-25T10:25:29.355Z,99199.00
2022-10-25T10:30:32.968Z,99200.00
2022-10-25T10:35:38.312Z,99206.03
2022-10-25T10:40:44.733Z,99200.59
2022-10-25T10:45:51.718Z,99205.06
2022-10-25T10:50:54.762Z,99200.31
2022-10-25T10:56:01.293Z,99213.06
2022-10-25T11:01:07.312Z,99212.72
2022-10-25T11:06:14.389Z,99196.28
2022-10-25T11:11:20.749Z,99205.63
2022-10-25T11:16:45.119Z,99207.13
2022-10-25T11:22:18.249Z,99209.59
2022-10-25T11:27:35.031Z,99216.00
2022-10-25T11:33:10.947Z,99212.31
2022-10-25T11:38:18.157Z,99211.47
2022-10-25T11:43:48.472Z,99215.25
2022-10-25T11:49:04.002Z,99209.28
2022-10-25T11:54:31.369Z,99210.69
2022-10-25T11:59:49.971Z,99203.63
2022-10-25T12:05:04.681Z,99203.19
2022-10-25T12:10:17.814Z,99208.50
2022-10-25T12:15:25.458Z,99210.75
2022-10-25T12:20:31.266Z,99205.19
2022-10-25T12:25:38.580Z,99210.81
2022-10-25T12:30:43.828Z,99217.88
2022-10-25T12:35:51.091Z,99218.22
2022-10-25T12:40:58.497Z,99216.94
2022-10-25T12:46:39.872Z,99231.38
2022-10-25T12:52:00.055Z,99224.75
2022-10-25T12:57:14.729Z,99220.25
2022-10-25T13:02:50.882Z,99222.09
2022-10-25T13:07:57.740Z,99224.78
2022-10-25T13:13:03.320Z,99219.44
2022-10-25T13:18:27.417Z,99210.59
2022-10-25T13:24:05.720Z,99211.72
2022-10-25T13:29:41.734Z,99215.19
2022-10-25T13:34:46.093Z,99225.25
2022-10-25T13:39:55.314Z,99226.69
2022-10-25T13:45:06.954Z,99228.19
2022-10-25T13:55:23.374Z,99237.50
2022-10-25T14:00:36.587Z,99243.41
2022-10-25T14:06:29.649Z,99246.59
2022-10-25T14:11:39.648Z,99240.75
2022-10-25T14:16:54.701Z,99246.47
2022-10-25T14:21:57.996Z,99235.06
2022-10-25T14:27:02.629Z,99241.31
2022-10-25T14:32:14.099Z,99245.41
2022-10-25T14:37:17.081Z,99244.88
2022-10-25T14:42:21.324Z,99251.69
2022-10-25T14:47:29.366Z,99247.44
2022-10-25T14:52:32.789Z,99246.84
2022-10-25T14:57:37.467Z,99238.75
2022-10-25T15:02:41.592Z,99239.38
2022-10-25T15:07:47.039Z,99244.56
2022-10-25T15:12:53.383Z,99248.22
2022-10-25T15:17:56.663Z,99252.16
2022-10-25T15:23:04.737Z,99256.34
2022-10-25T15:28:13.474Z,99246.88
2022-10-25T15:33:18.860Z,99243.84
2022-10-25T15:38:21.827Z,99245.38
2022-10-25T15:43:26.179Z,99247.75
2022-10-25T15:48:29.460Z,99253.94
2022-10-25T15:53:32.440Z,99249.78
2022-10-25T15:58:36.756Z,99248.09
2022-10-25T16:03:39.709Z,99264.44
2022-10-25T16:08:42.920Z,99253.69
2022-10-25T16:13:51.176Z,99252.50
2022-10-25T16:18:54.763Z,99263.31
2022-10-25T16:23:57.835Z,99256.72
2022-10-25T16:29:02.104Z,99266.97
2022-10-25T16:34:04.995Z,99276.81
2022-10-25T16:39:08.886Z,99283.50
2022-10-25T16:44:15.199Z,99277.94
2022-10-25T16:49:18.130Z,99283.56
2022-10-25T16:54:24.158Z,99289.66
2022-10-25T16:59:28.653Z,99305.72
2022-10-25T17:04:31.585Z,99308.81
2022-10-25T17:09:34.459Z,99317.84
2022-10-25T17:14:39.378Z,99316.72
2022-10-25T17:19:42.377Z,99325.06
2022-10-25T17:24:45.497Z,99323.31
2022-10-25T17:29:49.742Z,99325.00
2022-10-25T17:34:53.859Z,99320.56
2022-10-25T17:39:56.772Z,99337.78
2022-10-25T17:45:01.037Z,99337.22
2022-10-25T17:50:04.414Z,99332.97
2022-10-25T17:55:10.128Z,99339.75
2022-10-25T18:00:15.852Z,99346.59
2022-10-25T18:05:21.335Z,99341.34
2022-10-25T18:10:24.562Z,99343.84
2022-10-25T18:15:29.313Z,99339.94
2022-10-25T18:20:32.440Z,99341.28
2022-10-25T18:25:35.379Z,99343.69
2022-10-25T18:30:39.647Z,99355.75
2022-10-25T18:35:42.899Z,99348.59
2022-10-25T18:40:45.875Z,99352.56
2022-10-25T18:45:50.365Z,99330.19
2022-10-25T18:50:53.595Z,99343.88
2022-10-25T18:55:56.498Z,99334.50
2022-10-25T19:01:08.443Z,99346.06
2022-10-25T19:06:11.877Z,99336.78
2022-10-25T19:11:16.265Z,99337.16
2022-10-25T19:16:21.712Z,99328.78
2022-10-25T19:21:24.729Z,99329.25
2022-10-25T19:26:27.912Z,99339.59
2022-10-25T19:31:32.320Z,99345.75
2022-10-25T19:36:35.575Z,99340.59
2022-10-25T19:41:38.584Z,99338.63
2022-10-25T19:46:42.881Z,99339.56
2022-10-25T19:51:45.862Z,99341.56
2022-10-25T19:56:48.880Z,99359.19
2022-10-25T20:01:53.256Z,99359.44
2022-10-25T20:06:56.242Z,99354.31
2022-10-25T20:11:59.192Z,99353.78
2022-10-25T20:17:03.632Z,99350.63
2022-10-25T20:22:06.901Z,99356.41
2022-10-25T20:27:09.810Z,99352.00
2022-10-25T20:32:15.015Z,99348.00
2022-10-25T20:37:18.329Z,99337.22
2022-10-25T20:42:21.220Z,99353.41
2022-10-25T20:47:25.548Z,99353.16
2022-10-25T20:52:28.435Z,99349.56
2022-10-25T20:57:33.616Z,99359.56
2022-10-25T21:02:38.245Z,99367.59
2022-10-25T21:07:41.327Z,99369.53
2022-10-25T21:12:44.289Z,99362.81
2022-10-25T21:17:51.170Z,99369.06
2022-10-25T21:22:54.201Z,99371.06
2022-10-25T21:27:57.431Z,99371.97
2022-10-25T21:33:01.713Z,99366.44
2022-10-25T21:38:04.611Z,99369.72
2022-10-25T21:43:07.516Z,99371.53
2022-10-25T21:48:11.862Z,99368.72
2022-10-25T21:53:15.267Z,99379.94
2022-10-25T21:58:18.159Z,99371.66
2022-10-25T22:03:24.285Z,99374.22
2022-10-25T22:08:29.806Z,99371.94
2022-10-25T22:13:32.934Z,99369.94
2022-10-25T22:18:37.962Z,99369.16
2022-10-25T22:23:41.159Z,99367.25
2022-10-25T22:28:44.151Z,99369.50
2022-10-25T22:33:48.640Z,99370.31
2022-10-25T22:38:51.558Z,99372.53
2022-10-25T22:43:55.173Z,99360.91
2022-10-25T22:49:00.417Z,99364.72
2022-10-25T22:54:04.524Z,99368.16
2022-10-25T22:59:07.797Z,99366.53
2022-10-25T23:04:12.560Z,99377.66
2022-10-25T23:09:15.617Z,99368.19
2022-10-25T23:14:18.528Z,99373.41
2022-10-25T23:19:22.815Z,99372.03
2022-10-25T23:24:25.859Z,99367.97
2022-10-25T23:29:28.761Z,99367.38
2022-10-25T23:34:34.268Z,99362.31
2022-10-25T23:39:37.144Z,99364.13
2022-10-25T23:44:40.025Z,99368.00
2022-10-25T23:49:44.298Z,99371.00
2022-10-25T23:54:47.183Z,99367.13
2022-10-25T23:59:50.081Z,99364.91
